Criders, Virginia
Current Conditions -  °F | °C
As of 3:55 PM on Tuesday 21 Oct 2014 (Local Time) from K8W2 Reporting Station
Overcast Overcast  
Wind Chill: 54°   Ceiling: 4600
Heat Index: 54°   Visibility: 3mi
Dew Point: 50°   Wind: 3mph
Humidity: 85%   Direction: 100°E
Pressure: 29.86"   Gusts: NA
Location:  38.75°N, 79°W
Report Text: K8W2 211955Z AUTO 10003KT 3SM SCT040 BKN046 OVC055 12/10 A2986 RMK AO1 P0010 T01240100
Loading
Personal Weather Stations






























Interactive Weather Map
Tropical Storm Tracking
New forecast layout! Learn more

10-Day Weather Forecast

Advertisements
Track Severe Weather on mobile